createdAt,value
2023-04-28T00:00:25.276Z,13.70
2023-04-28T00:05:30.915Z,14.20
2023-04-28T00:10:37.377Z,16.47
2023-04-28T00:15:45.046Z,11.73
2023-04-28T00:20:50.170Z,11.60
2023-04-28T00:25:55.295Z,10.27
2023-04-28T00:31:05.189Z,13.50
2023-04-28T00:36:11.545Z,11.97
2023-04-28T00:41:16.509Z,14.27
2023-04-28T00:46:28.352Z,13.70
2023-04-28T00:51:34.027Z,11.00
2023-04-28T00:56:39.527Z,13.87
2023-04-28T01:01:47.391Z,13.17
2023-04-28T01:06:53.979Z,13.43
2023-04-28T01:12:00.247Z,15.10
2023-04-28T01:17:23.500Z,11.97
2023-04-28T01:22:28.810Z,10.67
2023-04-28T01:27:36.709Z,14.97
2023-04-28T01:32:41.777Z,13.53
2023-04-28T01:37:47.640Z,11.17
2023-04-28T01:42:55.425Z,11.97
2023-04-28T01:48:01.071Z,11.80
2023-04-28T01:53:06.080Z,11.43
2023-04-28T01:58:13.736Z,11.83
2023-04-28T02:03:19.411Z,12.80
2023-04-28T02:08:24.655Z,15.60
2023-04-28T02:13:34.214Z,13.03
2023-04-28T02:18:39.524Z,11.80
2023-04-28T02:23:44.549Z,15.57
2023-04-28T02:28:52.266Z,11.93
2023-04-28T02:33:59.053Z,12.77
2023-04-28T02:39:04.377Z,13.77
2023-04-28T02:44:12.130Z,11.90
2023-04-28T02:49:17.376Z,14.30
2023-04-28T02:54:27.914Z,10.83
2023-04-28T02:59:36.839Z,12.10
2023-04-28T03:04:42.079Z,13.73
2023-04-28T03:09:48.694Z,15.80
2023-04-28T03:14:56.331Z,15.03
2023-04-28T03:20:01.306Z,13.90
2023-04-28T03:25:08.374Z,17.23
2023-04-28T03:30:24.887Z,13.00
2023-04-28T03:35:30.095Z,14.17
2023-04-28T03:40:35.417Z,11.80
2023-04-28T03:45:52.473Z,16.67
2023-04-28T03:51:00.649Z,18.33
2023-04-28T03:56:06.499Z,15.53
2023-04-28T04:01:15.567Z,18.80
2023-04-28T04:06:20.849Z,16.43
2023-04-28T04:11:26.298Z,14.90
2023-04-28T04:16:34.491Z,12.30
2023-04-28T04:21:39.787Z,15.67
2023-04-28T04:26:44.871Z,15.80
2023-04-28T04:32:13.298Z,14.47
2023-04-28T04:37:21.057Z,10.33
2023-04-28T04:42:34.954Z,13.60
2023-04-28T04:47:53.382Z,15.50
2023-04-28T04:52:58.571Z,19.30
2023-04-28T04:58:04.281Z,11.83
2023-04-28T05:03:30.251Z,17.53
2023-04-28T05:08:37.365Z,15.13
2023-04-28T05:13:47.361Z,16.40
2023-04-28T05:18:57.733Z,14.60
2023-04-28T05:24:04.681Z,15.93
2023-04-28T05:29:10.011Z,18.37
2023-04-28T05:34:18.145Z,11.57
2023-04-28T05:39:25.191Z,14.53
2023-04-28T05:44:32.739Z,11.80
2023-04-28T05:49:41.320Z,13.57
2023-04-28T05:54:47.437Z,17.03
2023-04-28T05:59:52.540Z,14.57
2023-04-28T06:05:00.474Z,10.23
2023-04-28T06:10:10.065Z,12.57
2023-04-28T06:15:15.705Z,11.93
2023-04-28T06:20:24.413Z,11.27
2023-04-28T06:25:32.267Z,12.00
2023-04-28T06:30:39.148Z,15.10
2023-04-28T06:35:52.151Z,15.13
2023-04-28T06:40:58.044Z,14.43
2023-04-28T06:46:04.551Z,15.43
2023-04-28T06:51:16.604Z,11.03
2023-04-28T06:56:24.479Z,10.70
2023-04-28T07:01:30.125Z,15.50
2023-04-28T07:06:42.570Z,13.10
2023-04-28T07:11:47.966Z,15.23
2023-04-28T07:16:55.680Z,13.10
2023-04-28T07:22:08.839Z,11.97
2023-04-28T07:27:15.733Z,12.17
2023-04-28T07:32:20.893Z,16.73
2023-04-28T07:37:29.732Z,11.03
2023-04-28T07:42:38.430Z,13.73
2023-04-28T07:47:51.418Z,11.00
2023-04-28T07:52:59.255Z,11.83
2023-04-28T07:58:04.755Z,10.77
2023-04-28T08:03:10.424Z,10.63
2023-04-28T08:08:20.620Z,9.37
2023-04-28T08:13:33.578Z,10.27
2023-04-28T08:18:41.797Z,10.13
2023-04-28T08:23:55.084Z,11.80
2023-04-28T08:29:04.604Z,10.57
2023-04-28T08:34:14.612Z,9.97
2023-04-28T08:39:24.530Z,11.30
2023-04-28T08:44:30.535Z,6.97
2023-04-28T08:49:39.065Z,11.20
2023-04-28T08:54:48.009Z,12.10
2023-04-28T08:59:53.371Z,10.37
2023-04-28T09:05:01.710Z,13.17
2023-04-28T09:10:26.855Z,14.40
2023-04-28T09:15:38.146Z,11.00
2023-04-28T09:20:45.236Z,10.83
2023-04-28T09:26:06.856Z,5.57
2023-04-28T09:31:25.687Z,8.10
2023-04-28T09:36:33.982Z,12.90
2023-04-28T09:41:48.687Z,8.00
2023-04-28T09:46:56.601Z,5.27
2023-04-28T09:52:16.268Z,11.17
2023-04-28T09:57:27.852Z,7.33
2023-04-28T10:07:44.834Z,10.67
2023-04-28T10:12:54.754Z,9.13
2023-04-28T10:18:00.934Z,10.77
2023-04-28T10:23:32.710Z,7.10
2023-04-28T10:28:48.637Z,7.87
2023-04-28T10:34:07.573Z,7.27
2023-04-28T10:39:19.297Z,7.53
2023-04-28T10:44:48.936Z,6.30
2023-04-28T10:50:09.451Z,8.67
2023-04-28T10:55:37.152Z,7.67
2023-04-28T11:00:48.582Z,8.23
2023-04-28T11:06:26.476Z,9.77
2023-04-28T11:11:33.721Z,10.13
2023-04-28T11:16:52.597Z,10.80
2023-04-28T11:21:59.208Z,9.23
2023-04-28T12:31:23.513Z,9.23
2023-04-28T12:37:06.794Z,16.40
2023-04-28T12:42:34.463Z,7.97
2023-04-28T12:48:12.494Z,13.10
2023-04-28T12:53:45.855Z,11.97
2023-04-28T12:59:39.715Z,12.27
2023-04-28T13:17:13.632Z,14.83
2023-04-28T13:34:27.632Z,13.77
2023-04-28T13:56:48.789Z,10.70
2023-04-28T14:01:53.827Z,12.00
2023-04-28T14:06:59.065Z,13.13
2023-04-28T14:12:08.872Z,10.20
2023-04-28T14:17:14.126Z,10.87
2023-04-28T14:22:22.368Z,13.13
2023-04-28T14:27:31.085Z,13.47
2023-04-28T14:32:39.187Z,10.83
2023-04-28T14:37:45.530Z,7.90
2023-04-28T14:42:56.988Z,8.87
2023-04-28T14:48:04.574Z,10.30
2023-04-28T14:53:12.683Z,10.07
2023-04-28T14:58:20.562Z,12.10
2023-04-28T15:03:26.103Z,12.13
2023-04-28T15:08:31.491Z,9.00
2023-04-28T15:13:42.923Z,8.23
2023-04-28T15:18:49.300Z,11.07
2023-04-28T15:23:54.934Z,10.03
2023-04-28T15:29:03.067Z,13.10
2023-04-28T15:34:08.133Z,10.40
2023-04-28T15:39:14.084Z,10.10
2023-04-28T15:44:22.100Z,10.03
2023-04-28T15:49:27.566Z,11.40
2023-04-28T15:54:32.685Z,8.90
2023-04-28T15:59:45.378Z,12.70
2023-04-28T16:04:50.675Z,10.53
2023-04-28T16:09:56.652Z,9.93
2023-04-28T16:15:04.455Z,16.87
2023-04-28T16:20:11.782Z,13.43
2023-04-28T16:25:17.792Z,12.53
2023-04-28T16:30:26.660Z,13.33
2023-04-28T16:35:31.857Z,13.70
2023-04-28T16:40:38.026Z,12.03
2023-04-28T16:45:46.613Z,13.43
2023-04-28T16:50:51.929Z,10.50
2023-04-28T16:55:58.478Z,11.97
2023-04-28T17:01:06.366Z,8.33
2023-04-28T17:06:11.571Z,11.77
2023-04-28T17:11:19.807Z,10.03
2023-04-28T17:16:29.562Z,8.87
2023-04-28T17:21:35.518Z,11.83
2023-04-28T17:26:43.408Z,9.20
2023-04-28T17:31:51.320Z,11.80
2023-04-28T17:36:56.513Z,11.47
2023-04-28T17:42:04.103Z,11.27
2023-04-28T17:47:15.108Z,10.13
2023-04-28T17:52:23.261Z,10.70
2023-04-28T17:57:30.950Z,9.33
2023-04-28T18:02:38.779Z,9.73
2023-04-28T18:07:44.136Z,10.40
2023-04-28T18:12:50.532Z,11.90
2023-04-28T18:18:02.346Z,9.00
2023-04-28T18:23:07.432Z,11.67
2023-04-28T18:28:12.726Z,8.03
2023-04-28T18:33:23.391Z,9.47
2023-04-28T18:38:31.185Z,9.50
2023-04-28T18:43:37.209Z,11.13
2023-04-28T18:48:45.062Z,8.50
2023-04-28T18:53:50.525Z,9.43
2023-04-28T18:58:55.747Z,10.17
2023-04-28T19:04:04.525Z,8.10
2023-04-28T19:09:11.901Z,9.80
2023-04-28T19:14:18.046Z,8.27
2023-04-28T19:19:26.353Z,9.20
2023-04-28T19:24:32.644Z,9.00
2023-04-28T19:29:38.435Z,8.83
2023-04-28T19:34:46.116Z,8.67
2023-04-28T19:39:52.598Z,12.27
2023-04-28T19:44:59.053Z,9.77
2023-04-28T19:50:08.755Z,11.57
2023-04-28T19:55:18.560Z,11.10
2023-04-28T20:00:24.436Z,16.60
2023-04-28T20:05:32.249Z,10.13
2023-04-28T20:10:37.650Z,10.77
2023-04-28T20:15:42.665Z,9.67
2023-04-28T20:20:55.318Z,11.43
2023-04-28T20:26:00.852Z,9.43
2023-04-28T20:31:07.842Z,10.40
2023-04-28T20:36:15.872Z,10.17
2023-04-28T20:41:24.003Z,12.20
2023-04-28T20:46:30.978Z,12.57
2023-04-28T20:51:41.201Z,10.00
2023-04-28T20:56:49.971Z,9.53
2023-04-28T21:01:55.797Z,10.50
2023-04-28T21:07:04.432Z,10.20
2023-04-28T21:12:09.830Z,9.40
2023-04-28T21:17:14.926Z,10.57
2023-04-28T21:22:24.484Z,11.27
2023-04-28T21:27:29.620Z,11.07
2023-04-28T21:32:34.923Z,11.27
2023-04-28T21:37:42.802Z,10.30
2023-04-28T21:42:48.284Z,9.43
2023-04-28T21:47:53.625Z,10.60
2023-04-28T21:53:01.790Z,12.57
2023-04-28T21:58:06.866Z,12.83
2023-04-28T22:03:12.601Z,17.27
2023-04-28T22:08:20.994Z,10.53
2023-04-28T22:13:26.114Z,13.00
2023-04-28T22:18:31.486Z,12.70
2023-04-28T22:23:39.182Z,14.57
2023-04-28T22:28:44.388Z,16.23
2023-04-28T22:33:49.474Z,16.53
2023-04-28T22:38:57.240Z,16.97
2023-04-28T22:44:02.636Z,17.80
2023-04-28T22:49:08.208Z,17.07
2023-04-28T22:54:15.993Z,17.87
2023-04-28T22:59:22.297Z,18.97
2023-04-28T23:04:27.490Z,18.00
2023-04-28T23:09:37.342Z,22.10
2023-04-28T23:14:42.534Z,16.93
2023-04-28T23:19:47.667Z,20.87
2023-04-28T23:24:55.343Z,19.67
2023-04-28T23:30:00.686Z,21.70
2023-04-28T23:35:08.096Z,23.67
2023-04-28T23:40:16.951Z,21.87
2023-04-28T23:45:22.135Z,21.53
2023-04-28T23:50:28.313Z,21.47
2023-04-28T23:55:36.054Z,22.90
